Time;durP1;ratioP1;P1;durP2;ratioP2;P2;SDS_P1;SDS_P2;PMS_P1;PMS_P2;Temp;Humidity;BMP_temperature;BMP_pressure;BME280_temperature;BME280_humidity;BME280_pressure;Samples;Min_cycle;Max_cycle;Signal;HPM_P1;HPM_P2
2022/07/11 00:01:42;;;;;;;;;;;19.70;48.70;;;;;;5142284;27;19934;-44
2022/07/11 00:04:08;;;;;;;;;;;20.00;49.40;;;;;;5169544;27;19923;-45
2022/07/11 00:06:34;;;;;;;;;;;20.90;49.30;;;;;;5165133;27;19927;-45
2022/07/11 00:09:00;;;;;;;;;;;21.50;47.30;;;;;;5165125;27;20007;-44
2022/07/11 00:11:25;;;;;;;;;;;20.30;49.20;;;;;;5152163;27;19923;-45
2022/07/11 00:13:51;;;;;;;;;;;20.00;49.20;;;;;;5165254;27;19985;-43
2022/07/11 00:16:17;;;;;;;;;;;19.90;48.60;;;;;;5163581;27;20136;-44
2022/07/11 00:18:43;;;;;;;;;;;19.70;48.60;;;;;;5150980;27;20013;-44
2022/07/11 00:21:09;;;;;;;;;;;20.50;50.50;;;;;;5164582;27;20293;-42
2022/07/11 00:23:34;;;;;;;;;;;21.40;48.50;;;;;;5169739;27;19927;-54
2022/07/11 00:26:00;;;;;;;;;;;20.60;49.20;;;;;;5146432;27;19923;-46
2022/07/11 00:28:26;;;;;;;;;;;20.20;48.90;;;;;;5164950;27;19972;-45
2022/07/11 00:30:52;;;;;;;;;;;19.80;48.90;;;;;;5170264;27;20635;-44
2022/07/11 00:33:18;;;;;;;;;;;19.60;49.40;;;;;;5164618;27;20017;-46
2022/07/11 00:35:44;;;;;;;;;;;20.60;50.70;;;;;;5162927;27;20427;-47
2022/07/11 00:38:10;;;;;;;;;;;21.40;48.70;;;;;;5151062;27;20005;-44
2022/07/11 00:40:36;;;;;;;;;;;20.50;49.20;;;;;;5164370;27;20007;-46
2022/07/11 00:43:05;;;;;;;;;;;20.00;49.50;;;;;;5166756;27;20344;-54
2022/07/11 00:45:31;;;;;;;;;;;19.80;49.40;;;;;;5150816;27;20382;-45
2022/07/11 00:47:57;;;;;;;;;;;19.80;49.20;;;;;;5145949;27;19983;-47
2022/07/11 00:50:23;;;;;;;;;;;20.30;51.10;;;;;;5151369;27;19985;-47
2022/07/11 00:52:49;;;;;;;;;;;21.30;49.60;;;;;;5144500;27;19927;-45
2022/07/11 00:55:15;;;;;;;;;;;21.30;48.60;;;;;;5163496;27;19930;-50
2022/07/11 00:57:41;;;;;;;;;;;20.20;50.00;;;;;;5169660;27;20421;-46
2022/07/11 01:00:07;;;;;;;;;;;20.00;49.90;;;;;;5164270;27;20009;-44
2022/07/11 01:02:33;;;;;;;;;;;19.70;50.00;;;;;;5164066;27;20408;-46
2022/07/11 01:04:59;;;;;;;;;;;19.50;49.80;;;;;;5169570;27;19923;-46
2022/07/11 01:07:25;;;;;;;;;;;20.00;51.20;;;;;;5163931;27;19923;-44
2022/07/11 01:09:50;;;;;;;;;;;21.00;51.00;;;;;;5169441;27;20295;-47
2022/07/11 01:12:17;;;;;;;;;;;21.70;49.20;;;;;;5162366;27;19930;-45
2022/07/11 01:14:57;;;;;;;;;;;20.50;50.10;;;;;;5162579;27;19923;-45
2022/07/11 01:17:23;;;;;;;;;;;20.10;50.20;;;;;;5169365;27;20301;-45
2022/07/11 01:19:49;;;;;;;;;;;19.70;50.00;;;;;;5163808;27;20773;-45
2022/07/11 01:22:15;;;;;;;;;;;20.00;50.70;;;;;;5145033;27;19931;-45
2022/07/11 01:24:41;;;;;;;;;;;20.80;51.30;;;;;;5148890;27;19973;-46
2022/07/11 01:27:07;;;;;;;;;;;21.60;49.20;;;;;;5145021;27;19923;-46
2022/07/11 01:29:33;;;;;;;;;;;20.30;50.50;;;;;;5163241;27;20006;-53
2022/07/11 01:31:58;;;;;;;;;;;19.90;50.70;;;;;;5167820;27;19923;-47
2022/07/11 01:34:24;;;;;;;;;;;19.90;49.80;;;;;;5163445;27;19970;-44
2022/07/11 01:36:50;;;;;;;;;;;20.00;51.60;;;;;;5169111;27;20042;-46
2022/07/11 01:39:16;;;;;;;;;;;21.00;51.30;;;;;;5143677;27;19948;-46
2022/07/11 01:41:41;;;;;;;;;;;21.50;49.20;;;;;;5163785;27;20285;-47
2022/07/11 01:44:07;;;;;;;;;;;20.30;50.80;;;;;;5150237;27;19922;-49
2022/07/11 01:46:33;;;;;;;;;;;20.00;50.50;;;;;;5163459;27;19922;-45
2022/07/11 01:48:59;;;;;;;;;;;19.90;49.60;;;;;;5161855;27;19923;-45
2022/07/11 01:51:25;;;;;;;;;;;19.80;49.60;;;;;;5168428;27;19922;-45
2022/07/11 01:53:52;;;;;;;;;;;20.50;52.20;;;;;;5144690;27;20017;-50
2022/07/11 01:56:17;;;;;;;;;;;21.30;50.90;;;;;;5169174;27;19923;-47
2022/07/11 01:58:43;;;;;;;;;;;21.40;49.40;;;;;;5163510;27;19927;-45
2022/07/11 02:01:09;;;;;;;;;;;20.30;50.60;;;;;;5163608;27;19935;-45
2022/07/11 02:03:38;;;;;;;;;;;20.00;49.80;;;;;;5168732;27;20383;-45
2022/07/11 02:06:04;;;;;;;;;;;19.70;49.50;;;;;;5162347;27;19929;-46
2022/07/11 02:08:30;;;;;;;;;;;20.20;52.90;;;;;;5162193;27;19922;-45
2022/07/11 02:10:56;;;;;;;;;;;21.30;50.70;;;;;;5168381;27;19926;-51
2022/07/11 02:13:22;;;;;;;;;;;21.70;49.40;;;;;;5163008;27;19969;-57
2022/07/11 02:15:50;;;;;;;;;;;21.70;48.70;;;;;;5168397;27;19926;-54
2022/07/11 02:18:19;;;;;;;;;;;21.70;48.50;;;;;;5164231;27;19922;-58
2022/07/11 02:20:51;;;;;;;;;;;21.80;48.10;;;;;;5163078;27;20283;-58
2022/07/11 02:23:17;;;;;;;;;;;21.80;48.00;;;;;;5168554;27;19966;-58
2022/07/11 02:25:43;;;;;;;;;;;21.80;48.10;;;;;;5160520;27;20017;-56
2022/07/11 02:28:09;;;;;;;;;;;21.80;48.00;;;;;;5161820;27;20062;-57
2022/07/11 02:30:35;;;;;;;;;;;21.80;47.80;;;;;;5168233;27;20018;-56
2022/07/11 02:33:01;;;;;;;;;;;21.80;47.80;;;;;;5163027;27;19923;-58
2022/07/11 02:35:27;;;;;;;;;;;21.90;47.60;;;;;;5144322;27;20309;-56
2022/07/11 02:37:52;;;;;;;;;;;21.90;47.50;;;;;;5168427;27;19930;-58
2022/07/11 02:40:18;;;;;;;;;;;22.10;47.20;;;;;;5162921;27;19922;-57
2022/07/11 02:42:44;;;;;;;;;;;22.10;47.20;;;;;;5166949;27;20389;-57
2022/07/11 02:45:10;;;;;;;;;;;22.20;47.00;;;;;;5161364;27;20017;-58
2022/07/11 02:47:36;;;;;;;;;;;22.30;47.00;;;;;;5162433;27;20051;-57
2022/07/11 02:50:02;;;;;;;;;;;22.30;47.10;;;;;;5167736;27;20018;-56
2022/07/11 02:52:28;;;;;;;;;;;22.20;47.20;;;;;;5162393;27;19954;-56
2022/07/11 02:54:54;;;;;;;;;;;22.10;47.50;;;;;;5162685;27;19966;-56
2022/07/11 02:57:20;;;;;;;;;;;22.20;47.50;;;;;;5167898;27;20474;-57
2022/07/11 02:59:45;;;;;;;;;;;22.30;47.00;;;;;;5162358;27;19945;-57
2022/07/11 03:02:11;;;;;;;;;;;22.40;46.60;;;;;;5165902;27;20284;-58
2022/07/11 03:04:37;;;;;;;;;;;22.10;47.20;;;;;;5161602;27;19922;-56
2022/07/11 03:07:03;;;;;;;;;;;21.60;47.70;;;;;;5162065;27;19922;-56
2022/07/11 03:09:29;;;;;;;;;;;21.40;48.80;;;;;;5167636;27;19934;-56
2022/07/11 03:11:54;;;;;;;;;;;21.60;48.90;;;;;;5162243;27;19923;-57
2022/07/11 03:14:20;;;;;;;;;;;21.60;49.00;;;;;;5162297;27;19922;-58
2022/07/11 03:16:46;;;;;;;;;;;21.70;48.90;;;;;;5167472;27;19934;-57
2022/07/11 03:19:12;;;;;;;;;;;21.70;48.70;;;;;;5161205;27;20305;-58
2022/07/11 03:21:38;;;;;;;;;;;21.80;48.30;;;;;;5146954;27;19927;-57
2022/07/11 03:24:04;;;;;;;;;;;21.80;48.00;;;;;;5162027;27;19922;-57
2022/07/11 03:26:30;;;;;;;;;;;21.70;48.00;;;;;;5161682;27;19974;-58
2022/07/11 03:28:55;;;;;;;;;;;21.20;47.40;;;;;;5148838;27;20005;-58
2022/07/11 03:31:21;;;;;;;;;;;21.00;47.40;;;;;;5162306;27;19936;-58
2022/07/11 03:33:47;;;;;;;;;;;21.10;48.90;;;;;;5143364;27;20400;-59
2022/07/11 03:36:13;;;;;;;;;;;21.60;51.20;;;;;;5148704;27;19931;-59
2022/07/11 03:38:39;;;;;;;;;;;21.90;50.40;;;;;;5159989;27;19927;-59
2022/07/11 03:41:04;;;;;;;;;;;22.10;49.50;;;;;;5163922;27;20322;-57
2022/07/11 03:43:30;;;;;;;;;;;22.20;48.90;;;;;;5164432;27;20139;-58
2022/07/11 03:45:56;;;;;;;;;;;22.30;48.40;;;;;;5162049;27;20021;-58
2022/07/11 03:48:22;;;;;;;;;;;22.50;48.10;;;;;;5167151;27;19926;-60
2022/07/11 03:50:48;;;;;;;;;;;22.60;47.70;;;;;;5162082;27;19923;-58
2022/07/11 03:53:14;;;;;;;;;;;21.70;48.80;;;;;;5161896;27;20377;-58
2022/07/11 03:55:40;;;;;;;;;;;21.40;49.30;;;;;;5166733;27;19950;-57
2022/07/11 03:58:05;;;;;;;;;;;21.50;50.30;;;;;;5159815;27;19923;-58
2022/07/11 04:00:31;;;;;;;;;;;21.60;50.40;;;;;;5161652;27;19923;-59
2022/07/11 04:02:57;;;;;;;;;;;21.60;50.30;;;;;;5167011;27;20383;-59
2022/07/11 04:05:23;;;;;;;;;;;21.70;49.90;;;;;;5161381;27;20029;-57
2022/07/11 04:07:49;;;;;;;;;;;21.80;49.60;;;;;;5166856;27;19923;-58
2022/07/11 04:10:17;;;;;;;;;;;21.80;49.60;;;;;;5161771;27;19923;-58
2022/07/11 04:12:43;;;;;;;;;;;21.80;49.70;;;;;;5161428;27;19923;-59
2022/07/11 04:15:09;;;;;;;;;;;21.70;50.00;;;;;;5165444;27;20436;-59
2022/07/11 04:17:35;;;;;;;;;;;21.70;50.10;;;;;;5160465;27;19988;-58
2022/07/11 04:20:02;;;;;;;;;;;21.70;50.10;;;;;;5161312;27;19927;-58
2022/07/11 04:22:28;;;;;;;;;;;21.70;50.10;;;;;;5166806;27;20374;-60
2022/07/11 04:24:54;;;;;;;;;;;21.70;50.00;;;;;;5160956;27;19934;-59
2022/07/11 04:27:19;;;;;;;;;;;21.80;49.80;;;;;;5166635;27;19979;-59
2022/07/11 04:29:45;;;;;;;;;;;21.80;49.50;;;;;;5142418;27;19962;-59
2022/07/11 04:32:11;;;;;;;;;;;21.80;49.70;;;;;;5160889;27;19933;-58
2022/07/11 04:34:37;;;;;;;;;;;21.80;49.80;;;;;;5164819;27;19926;-59
2022/07/11 04:37:04;;;;;;;;;;;21.70;50.30;;;;;;5160556;27;19947;-59
2022/07/11 04:39:32;;;;;;;;;;;21.70;50.50;;;;;;5160727;27;19923;-59
2022/07/11 04:41:58;;;;;;;;;;;21.70;50.50;;;;;;5166512;27;20344;-59
2022/07/11 04:44:23;;;;;;;;;;;21.80;50.20;;;;;;5161017;27;20017;-60
2022/07/11 04:46:49;;;;;;;;;;;21.80;50.10;;;;;;5165373;27;20014;-57
2022/07/11 04:49:15;;;;;;;;;;;21.80;50.00;;;;;;5162481;27;20416;-59
2022/07/11 04:51:41;;;;;;;;;;;21.80;50.00;;;;;;5163284;27;19927;-59
2022/07/11 04:54:07;;;;;;;;;;;21.80;49.90;;;;;;5168890;27;20050;-59
2022/07/11 04:56:33;;;;;;;;;;;21.80;50.00;;;;;;5144146;27;20301;-59
2022/07/11 04:58:58;;;;;;;;;;;21.70;50.60;;;;;;5164300;27;19923;-59
2022/07/11 05:01:24;;;;;;;;;;;21.80;50.70;;;;;;5169744;27;19923;-59
2022/07/11 05:03:50;;;;;;;;;;;21.80;50.60;;;;;;5164485;27;20335;-59
2022/07/11 05:06:16;;;;;;;;;;;21.80;50.30;;;;;;5165907;27;20374;-57
2022/07/11 05:08:42;;;;;;;;;;;21.80;50.20;;;;;;5167972;27;19926;-57
2022/07/11 05:11:08;;;;;;;;;;;21.90;50.00;;;;;;5162687;27;20021;-57
2022/07/11 05:13:34;;;;;;;;;;;21.90;49.90;;;;;;5169195;27;19930;-60
2022/07/11 05:15:59;;;;;;;;;;;21.80;50.10;;;;;;5163914;27;19987;-60
2022/07/11 05:18:25;;;;;;;;;;;21.80;50.60;;;;;;5164192;27;19930;-59
2022/07/11 05:20:51;;;;;;;;;;;21.80;51.00;;;;;;5169392;27;20327;-58
2022/07/11 05:23:17;;;;;;;;;;;21.80;50.70;;;;;;5164278;27;19923;-58
2022/07/11 05:25:42;;;;;;;;;;;21.80;50.50;;;;;;5164342;27;19937;-56
2022/07/11 05:28:08;;;;;;;;;;;21.90;50.40;;;;;;5168149;27;20007;-58
2022/07/11 05:30:34;;;;;;;;;;;21.90;50.20;;;;;;5162980;27;19931;-57
2022/07/11 05:33:00;;;;;;;;;;;21.90;50.10;;;;;;5169028;27;19927;-58
2022/07/11 05:35:29;;;;;;;;;;;21.80;50.10;;;;;;5163982;27;19951;-57
2022/07/11 05:37:54;;;;;;;;;;;21.90;50.10;;;;;;5164024;27;20013;-58
2022/07/11 05:40:20;;;;;;;;;;;21.80;50.80;;;;;;5169667;27;19923;-58
2022/07/11 05:42:46;;;;;;;;;;;21.80;51.00;;;;;;5163933;27;20010;-57
2022/07/11 05:45:12;;;;;;;;;;;21.80;51.00;;;;;;5163762;27;20037;-59
2022/07/11 05:47:38;;;;;;;;;;;21.80;50.90;;;;;;5167555;27;20055;-60
2022/07/11 05:50:04;;;;;;;;;;;21.80;50.30;;;;;;5163400;27;19974;-61
2022/07/11 05:52:29;;;;;;;;;;;21.50;49.30;;;;;;5168823;27;19929;-59
2022/07/11 05:54:55;;;;;;;;;;;21.20;48.40;;;;;;5163860;27;19923;-58
2022/07/11 05:57:21;;;;;;;;;;;21.30;48.30;;;;;;5145189;27;20018;-59
2022/07/11 05:59:47;;;;;;;;;;;21.50;50.20;;;;;;5168914;27;19929;-60
2022/07/11 06:02:13;;;;;;;;;;;21.50;51.00;;;;;;5163377;27;19948;-59
2022/07/11 06:04:38;;;;;;;;;;;21.60;51.10;;;;;;5162582;27;20652;-60
2022/07/11 06:07:04;;;;;;;;;;;21.70;51.20;;;;;;5167432;27;19939;-59
2022/07/11 06:09:30;;;;;;;;;;;21.70;51.30;;;;;;5162895;27;19926;-59
2022/07/11 06:11:56;;;;;;;;;;;21.60;51.20;;;;;;5168786;27;19923;-58
2022/07/11 06:14:23;;;;;;;;;;;21.70;51.10;;;;;;5163939;27;19971;-59
2022/07/11 06:16:50;;;;;;;;;;;21.70;51.00;;;;;;5163839;27;19927;-59
2022/07/11 06:19:16;;;;;;;;;;;21.70;50.90;;;;;;5168829;27;20390;-59
2022/07/11 06:21:42;;;;;;;;;;;21.80;50.80;;;;;;5163884;27;19922;-58
2022/07/11 06:24:08;;;;;;;;;;;21.80;50.60;;;;;;5162130;27;19923;-59
2022/07/11 06:26:33;;;;;;;;;;;21.80;50.50;;;;;;5168088;27;20362;-58
2022/07/11 06:28:59;;;;;;;;;;;21.80;50.60;;;;;;5145084;27;20370;-58
2022/07/11 06:31:25;;;;;;;;;;;21.80;50.80;;;;;;5166175;27;19926;-57
2022/07/11 06:33:54;;;;;;;;;;;21.80;51.00;;;;;;5166642;27;19930;-58
2022/07/11 06:36:28;;;;;;;;;;;21.80;50.90;;;;;;5163754;27;19930;-58
2022/07/11 06:38:54;;;;;;;;;;;21.90;50.60;;;;;;5168720;27;20416;-59
2022/07/11 06:41:21;;;;;;;;;;;21.90;50.60;;;;;;5162718;27;19930;-57
2022/07/11 06:43:47;;;;;;;;;;;21.90;50.50;;;;;;5162603;27;19927;-58
2022/07/11 06:46:14;;;;;;;;;;;21.90;50.40;;;;;;5168015;27;19970;-57
2022/07/11 06:48:40;;;;;;;;;;;22.00;50.30;;;;;;5163617;27;19923;-59
2022/07/11 06:51:06;;;;;;;;;;;21.90;50.50;;;;;;5143940;27;20363;-59
2022/07/11 06:53:32;;;;;;;;;;;21.90;50.90;;;;;;5168278;27;20370;-59
2022/07/11 06:55:58;;;;;;;;;;;21.80;50.90;;;;;;5163522;27;19929;-58
2022/07/11 06:58:32;;;;;;;;;;;22.00;50.50;;;;;;5149323;27;19929;-57
2022/07/11 07:00:59;;;;;;;;;;;22.00;50.20;;;;;;5146757;27;19927;-54
2022/07/11 07:03:25;;;;;;;;;;;22.00;50.30;;;;;;5162240;27;19995;-57
2022/07/11 07:05:52;;;;;;;;;;;20.80;52.30;;;;;;5167821;27;19923;-58
2022/07/11 07:08:17;;;;;;;;;;;20.00;55.10;;;;;;5163171;27;19930;-59
2022/07/11 07:10:43;;;;;;;;;;;20.80;54.90;;;;;;5162327;27;20323;-59
2022/07/11 07:13:09;;;;;;;;;;;21.30;52.80;;;;;;5167059;27;19966;-59
2022/07/11 07:15:35;;;;;;;;;;;21.60;51.70;;;;;;5162041;27;19930;-60
2022/07/11 07:18:00;;;;;;;;;;;21.70;51.30;;;;;;5161335;27;20469;-58
2022/07/11 07:20:26;;;;;;;;;;;21.70;51.50;;;;;;5166298;27;19929;-59
2022/07/11 07:22:52;;;;;;;;;;;21.80;51.00;;;;;;5143096;27;19982;-57
2022/07/11 07:25:18;;;;;;;;;;;21.80;50.70;;;;;;5167376;27;19926;-57
2022/07/11 07:27:44;;;;;;;;;;;21.80;50.50;;;;;;5161784;27;20341;-59
2022/07/11 07:30:10;;;;;;;;;;;21.90;50.20;;;;;;5161889;27;19940;-58
2022/07/11 07:32:35;;;;;;;;;;;21.90;50.20;;;;;;5167565;27;20017;-59
2022/07/11 07:35:01;;;;;;;;;;;21.90;50.40;;;;;;5162096;27;20373;-59
2022/07/11 07:37:27;;;;;;;;;;;21.90;50.50;;;;;;5160121;27;20181;-58
2022/07/11 07:39:53;;;;;;;;;;;22.00;50.30;;;;;;5166429;27;19926;-56
2022/07/11 07:42:19;;;;;;;;;;;22.00;50.00;;;;;;5161622;27;20362;-58
2022/07/11 07:44:44;;;;;;;;;;;22.10;49.80;;;;;;5167033;27;19984;-60
2022/07/11 07:47:10;;;;;;;;;;;22.10;49.80;;;;;;5162675;27;19933;-59
2022/07/11 07:49:36;;;;;;;;;;;21.30;51.00;;;;;;5163017;27;19940;-58
2022/07/11 07:52:02;;;;;;;;;;;19.90;53.20;;;;;;5167651;27;20027;-55
2022/07/11 07:54:28;;;;;;;;;;;20.30;56.20;;;;;;5162565;27;19998;-56
2022/07/11 07:56:53;;;;;;;;;;;21.00;53.80;;;;;;5161515;27;20413;-54
2022/07/11 07:59:19;;;;;;;;;;;21.00;51.00;;;;;;5167104;27;19981;-55
2022/07/11 08:01:47;;;;;;;;;;;21.40;53.30;;;;;;5162003;27;19923;-55
2022/07/11 08:04:13;;;;;;;;;;;21.90;52.00;;;;;;5166911;27;20006;-55
2022/07/11 08:06:39;;;;;;;;;;;21.00;53.20;;;;;;5163307;27;20529;-49
2022/07/11 08:09:04;;;;;;;;;;;20.50;53.50;;;;;;5161865;27;19922;-49
2022/07/11 08:11:30;;;;;;;;;;;20.30;53.70;;;;;;5166744;27;19923;-47
2022/07/11 08:13:57;;;;;;;;;;;20.30;52.90;;;;;;5159643;27;19922;-50
2022/07/11 08:16:23;;;;;;;;;;;20.20;53.20;;;;;;5160309;27;20393;-47
2022/07/11 08:18:48;;;;;;;;;;;20.20;53.10;;;;;;5145709;27;19972;-48
2022/07/11 08:21:14;;;;;;;;;;;20.00;53.30;;;;;;5161136;27;20039;-50
2022/07/11 08:23:40;;;;;;;;;;;20.10;52.70;;;;;;5163850;27;19927;-55
2022/07/11 08:26:06;;;;;;;;;;;20.00;52.80;;;;;;5167447;27;19966;-49
2022/07/11 08:28:32;;;;;;;;;;;20.00;53.10;;;;;;5164902;27;19922;-48
2022/07/11 08:30:58;;;;;;;;;;;19.90;53.00;;;;;;5153642;27;19923;-50
2022/07/11 08:33:23;;;;;;;;;;;19.90;53.20;;;;;;5142184;27;19977;-50
2022/07/11 08:35:49;;;;;;;;;;;20.00;53.20;;;;;;5143559;27;20651;-46
2022/07/11 08:38:15;;;;;;;;;;;19.80;53.60;;;;;;5148973;27;19976;-48
2022/07/11 08:40:41;;;;;;;;;;;20.00;53.00;;;;;;5143836;27;19962;-47
2022/07/11 08:43:16;;;;;;;;;;;19.90;53.10;;;;;;5144415;27;19966;-53
2022/07/11 08:45:42;;;;;;;;;;;19.80;53.50;;;;;;5149327;27;19975;-48
2022/07/11 08:48:10;;;;;;;;;;;19.80;53.40;;;;;;5143805;27;20010;-47
2022/07/11 08:50:36;;;;;;;;;;;19.90;53.10;;;;;;5147892;27;19981;-47
2022/07/11 08:53:02;;;;;;;;;;;19.90;52.80;;;;;;5142818;27;19974;-51
2022/07/11 08:55:28;;;;;;;;;;;19.80;52.80;;;;;;5143317;27;20379;-50
2022/07/11 08:57:54;;;;;;;;;;;19.80;53.10;;;;;;5148853;27;19933;-50
2022/07/11 09:00:20;;;;;;;;;;;19.70;53.00;;;;;;5143415;27;19968;-49
2022/07/11 09:02:46;;;;;;;;;;;19.70;53.00;;;;;;5124987;27;19933;-49
2022/07/11 09:05:11;;;;;;;;;;;19.70;52.90;;;;;;5149021;27;19981;-46
2022/07/11 09:07:47;;;;;;;;;;;19.80;52.90;;;;;;5143269;27;19924;-47
2022/07/11 09:10:14;;;;;;;;;;;19.70;53.00;;;;;;5123462;27;20087;-53
2022/07/11 09:12:59;;;;;;;;;;;19.80;52.90;;;;;;5148581;27;19963;-46
2022/07/11 09:15:32;;;;;;;;;;;19.70;52.90;;;;;;5143322;27;19974;-47
2022/07/11 09:17:58;;;;;;;;;;;19.80;53.30;;;;;;5143531;27;19923;-54
2022/07/11 09:20:23;;;;;;;;;;;20.80;55.20;;;;;;5148761;27;19935;-49
2022/07/11 09:25:41;;;;;;;;;;;20.80;52.70;;;;;;5147193;27;19927;-58
2022/07/11 09:28:07;;;;;;;;;;;20.20;52.50;;;;;;5146511;27;19923;-51
2022/07/11 09:30:39;;;;;;;;;;;20.00;52.20;;;;;;5142540;27;19929;-47
2022/07/11 09:33:05;;;;;;;;;;;19.90;52.30;;;;;;5148024;27;19923;-48
2022/07/11 09:35:35;;;;;;;;;;;19.80;52.70;;;;;;5142292;27;19923;-49
2022/07/11 09:38:04;;;;;;;;;;;19.80;52.60;;;;;;5124528;27;19923;-47
2022/07/11 09:40:30;;;;;;;;;;;19.80;52.60;;;;;;5148574;27;19974;-47
2022/07/11 09:42:56;;;;;;;;;;;19.80;52.50;;;;;;5142712;27;20027;-47
2022/07/11 09:45:22;;;;;;;;;;;19.70;52.80;;;;;;5141405;27;20698;-46
2022/07/11 09:47:49;;;;;;;;;;;19.80;52.80;;;;;;5147056;27;19927;-51
2022/07/11 09:50:24;;;;;;;;;;;19.80;52.90;;;;;;5142171;27;19923;-47
2022/07/11 09:53:00;;;;;;;;;;;19.90;52.60;;;;;;5142640;27;20018;-49
2022/07/11 09:55:26;;;;;;;;;;;19.80;52.90;;;;;;5129698;27;19923;-49
2022/07/11 09:57:52;;;;;;;;;;;19.80;52.60;;;;;;5142579;27;19923;-49
2022/07/11 10:00:18;;;;;;;;;;;19.80;53.30;;;;;;5147914;27;19923;-45
2022/07/11 10:02:44;;;;;;;;;;;20.90;54.20;;;;;;5142886;27;19929;-47
2022/07/11 10:05:10;;;;;;;;;;;21.70;53.50;;;;;;5142017;27;20358;-49
2022/07/11 10:07:35;;;;;;;;;;;20.90;52.40;;;;;;5147646;27;19927;-47
2022/07/11 10:10:02;;;;;;;;;;;20.30;52.10;;;;;;5142906;27;19923;-47
2022/07/11 10:12:29;;;;;;;;;;;20.10;51.80;;;;;;5142680;27;19933;-47
2022/07/11 10:14:55;;;;;;;;;;;19.80;51.70;;;;;;5147710;27;19995;-47
2022/07/11 10:17:24;;;;;;;;;;;20.00;51.40;;;;;;5142509;27;19972;-55
2022/07/11 10:19:56;;;;;;;;;;;19.80;51.70;;;;;;5125685;27;20358;-53
2022/07/11 10:22:40;;;;;;;;;;;19.80;51.30;;;;;;5146279;27;19927;-49
2022/07/11 10:25:05;;;;;;;;;;;19.70;51.50;;;;;;5141324;27;20002;-47
2022/07/11 10:27:49;;;;;;;;;;;19.80;51.30;;;;;;5145211;27;19930;-55
2022/07/11 10:30:35;;;;;;;;;;;19.50;52.10;;;;;;5147597;27;20043;-48
2022/07/11 10:33:01;;;;;;;;;;;19.80;51.70;;;;;;5141776;27;20397;-47
2022/07/11 10:35:28;;;;;;;;;;;19.60;52.60;;;;;;5123762;27;19978;-46
2022/07/11 10:37:54;;;;;;;;;;;19.80;52.00;;;;;;5147521;27;20271;-47
2022/07/11 10:40:39;;;;;;;;;;;20.70;53.60;;;;;;5141000;27;20419;-49
2022/07/11 10:43:04;;;;;;;;;;;21.50;53.40;;;;;;5143810;27;19923;-53
2022/07/11 10:45:30;;;;;;;;;;;21.20;51.50;;;;;;5146248;27;19946;-46
2022/07/11 10:48:08;;;;;;;;;;;20.40;52.10;;;;;;5122546;27;21382;-52
2022/07/11 10:50:35;;;;;;;;;;;20.10;51.80;;;;;;5129144;27;20010;-48
2022/07/11 10:53:05;;;;;;;;;;;19.90;52.00;;;;;;5142329;27;20063;-49
2022/07/11 10:55:44;;;;;;;;;;;20.00;51.60;;;;;;5123393;27;19927;-48
2022/07/11 10:58:22;;;;;;;;;;;19.90;51.90;;;;;;5128472;27;19929;-50
2022/07/11 11:00:48;;;;;;;;;;;20.00;51.90;;;;;;5140404;27;19970;-48
2022/07/11 11:03:15;;;;;;;;;;;19.90;52.00;;;;;;5141364;27;21931;-49
2022/07/11 11:05:54;;;;;;;;;;;19.80;52.10;;;;;;5128495;27;19929;-48
2022/07/11 11:08:35;;;;;;;;;;;19.80;51.90;;;;;;5123293;27;19923;-48
2022/07/11 11:11:02;;;;;;;;;;;19.90;51.60;;;;;;5141687;27;19923;-47
2022/07/11 11:13:28;;;;;;;;;;;19.80;51.30;;;;;;5146833;27;19937;-50
2022/07/11 11:15:54;;;;;;;;;;;19.80;51.30;;;;;;5141940;27;20018;-49
2022/07/11 11:18:23;;;;;;;;;;;19.80;51.30;;;;;;5139991;27;19937;-49
2022/07/11 11:21:09;;;;;;;;;;;19.90;51.50;;;;;;5146215;27;20357;-47
2022/07/11 11:23:36;;;;;;;;;;;19.90;51.50;;;;;;5141066;27;19946;-50
2022/07/11 11:26:04;;;;;;;;;;;19.80;51.70;;;;;;5122842;27;20331;-46
2022/07/11 11:28:30;;;;;;;;;;;19.80;51.50;;;;;;5146593;27;19929;-48
2022/07/11 11:30:57;;;;;;;;;;;19.90;51.50;;;;;;5141692;27;19927;-49
2022/07/11 11:33:26;;;;;;;;;;;19.80;51.70;;;;;;5143240;27;19927;-58
2022/07/11 11:36:08;;;;;;;;;;;19.80;51.70;;;;;;5145358;27;19924;-47
2022/07/11 11:38:38;;;;;;;;;;;19.80;52.00;;;;;;5140379;27;19927;-45
2022/07/11 11:41:07;;;;;;;;;;;19.70;52.30;;;;;;5143939;27;20408;-54
2022/07/11 11:43:37;;;;;;;;;;;20.10;53.00;;;;;;5126759;27;20438;-46
2022/07/11 11:46:03;;;;;;;;;;;21.20;53.20;;;;;;5142338;27;19923;-47
2022/07/11 11:48:35;;;;;;;;;;;21.80;51.30;;;;;;5128534;27;19930;-48
2022/07/11 11:51:02;;;;;;;;;;;20.90;51.80;;;;;;5142140;27;20022;-47
2022/07/11 11:53:29;;;;;;;;;;;20.30;52.10;;;;;;5141396;27;20018;-48
2022/07/11 11:55:55;;;;;;;;;;;20.20;52.40;;;;;;5145378;27;20068;-48
2022/07/11 11:58:20;;;;;;;;;;;20.10;52.40;;;;;;5141389;27;19923;-47
2022/07/11 12:00:53;;;;;;;;;;;20.00;52.10;;;;;;5145067;27;20254;-50
2022/07/11 12:03:19;;;;;;;;;;;19.90;52.60;;;;;;5149899;27;20003;-47
2022/07/11 12:05:57;;;;;;;;;;;20.00;52.20;;;;;;5144867;27;20238;-49
2022/07/11 12:08:29;;;;;;;;;;;20.00;52.20;;;;;;5144976;27;19929;-49
2022/07/11 12:10:55;;;;;;;;;;;20.00;52.30;;;;;;5149952;27;20290;-47
2022/07/11 12:13:21;;;;;;;;;;;20.10;52.20;;;;;;5143115;27;20015;-45
2022/07/11 12:18:36;;;;;;;;;;;20.00;52.40;;;;;;5149577;27;19930;-47
2022/07/11 12:21:08;;;;;;;;;;;20.10;52.30;;;;;;5144198;27;19929;-50
2022/07/11 12:23:34;;;;;;;;;;;20.00;52.60;;;;;;5149275;27;20313;-56
2022/07/11 12:26:00;;;;;;;;;;;20.10;52.40;;;;;;5144978;27;20427;-50
2022/07/11 12:28:26;;;;;;;;;;;20.10;52.30;;;;;;5144009;27;19923;-46
2022/07/11 12:30:57;;;;;;;;;;;20.00;52.50;;;;;;5148372;27;19934;-51
2022/07/11 12:33:23;;;;;;;;;;;20.00;52.50;;;;;;5143181;27;19931;-47
2022/07/11 12:35:53;;;;;;;;;;;20.20;52.00;;;;;;5143880;27;20006;-51
2022/07/11 12:38:20;;;;;;;;;;;20.00;52.30;;;;;;5149469;27;20357;-49
2022/07/11 12:40:59;;;;;;;;;;;20.00;52.50;;;;;;5144305;27;19945;-50
2022/07/11 12:46:22;;;;;;;;;;;20.00;52.40;;;;;;5149538;27;20305;-47
2022/07/11 12:48:49;;;;;;;;;;;20.10;52.30;;;;;;5143506;27;19923;-47
2022/07/11 12:51:32;;;;;;;;;;;19.90;52.90;;;;;;5139131;27;19923;-47
2022/07/11 12:53:59;;;;;;;;;;;20.00;53.00;;;;;;5148852;27;19923;-46
2022/07/11 12:56:25;;;;;;;;;;;20.00;53.00;;;;;;5143692;27;20022;-50
2022/07/11 12:58:50;;;;;;;;;;;20.00;53.10;;;;;;5125330;27;19958;-48
2022/07/11 13:01:16;;;;;;;;;;;20.00;53.20;;;;;;5149413;27;19996;-48
2022/07/11 13:03:42;;;;;;;;;;;20.00;53.10;;;;;;5143962;27;19953;-48
2022/07/11 13:06:08;;;;;;;;;;;19.90;53.40;;;;;;5148968;27;20418;-50
2022/07/11 13:08:46;;;;;;;;;;;20.00;53.50;;;;;;5142258;27;19923;-50
2022/07/11 13:11:19;;;;;;;;;;;20.10;53.40;;;;;;5125681;27;20020;-47
2022/07/11 13:13:47;;;;;;;;;;;20.20;53.40;;;;;;5148942;27;19923;-46
2022/07/11 13:16:13;;;;;;;;;;;20.10;53.50;;;;;;5143688;27;20018;-47
2022/07/11 13:18:38;;;;;;;;;;;20.10;53.50;;;;;;5143613;27;19937;-46
2022/07/11 13:21:06;;;;;;;;;;;20.10;53.50;;;;;;5149042;27;19930;-46
2022/07/11 13:23:32;;;;;;;;;;;20.00;53.40;;;;;;5143428;27;19923;-47
2022/07/11 13:25:58;;;;;;;;;;;20.00;53.40;;;;;;5123949;27;19941;-48
2022/07/11 13:28:23;;;;;;;;;;;20.20;53.20;;;;;;5147635;27;19933;-47
2022/07/11 13:30:50;;;;;;;;;;;20.20;53.10;;;;;;5143204;27;20293;-47
2022/07/11 13:33:15;;;;;;;;;;;20.10;53.70;;;;;;5148081;27;19943;-54
2022/07/11 13:35:41;;;;;;;;;;;20.20;53.20;;;;;;5144293;27;19931;-46
2022/07/11 13:38:07;;;;;;;;;;;20.10;53.20;;;;;;5143654;27;19930;-46
2022/07/11 13:40:33;;;;;;;;;;;20.20;53.00;;;;;;5113105;27;20308;-49
2022/07/11 13:43:00;;;;;;;;;;;20.20;52.90;;;;;;5124214;27;19924;-46
2022/07/11 13:45:27;;;;;;;;;;;20.10;53.00;;;;;;5141602;27;19923;-49
2022/07/11 13:47:53;;;;;;;;;;;20.20;52.70;;;;;;5129579;27;19929;-47
2022/07/11 13:50:20;;;;;;;;;;;20.30;52.70;;;;;;5142907;27;19923;-49
2022/07/11 13:52:48;;;;;;;;;;;20.20;53.10;;;;;;5144131;27;19977;-58
2022/07/11 13:55:17;;;;;;;;;;;20.10;53.50;;;;;;5148173;27;20430;-48
2022/07/11 13:57:43;;;;;;;;;;;20.20;53.10;;;;;;5143144;27;19927;-47
2022/07/11 14:00:09;;;;;;;;;;;20.00;53.20;;;;;;5148131;27;20022;-46
2022/07/11 14:02:35;;;;;;;;;;;20.20;53.20;;;;;;5123211;27;19923;-50
2022/07/11 14:05:00;;;;;;;;;;;20.20;53.20;;;;;;5122505;27;19930;-46
2022/07/11 14:07:26;;;;;;;;;;;20.30;53.30;;;;;;5147854;27;19931;-48
2022/07/11 14:09:53;;;;;;;;;;;20.30;53.10;;;;;;5120448;27;19956;-48
2022/07/11 14:12:19;;;;;;;;;;;20.00;53.60;;;;;;5142923;27;20284;-47
2022/07/11 14:14:45;;;;;;;;;;;20.20;53.60;;;;;;5128490;27;19935;-47
2022/07/11 14:17:11;;;;;;;;;;;20.20;53.40;;;;;;5142878;27;19973;-48
2022/07/11 14:19:38;;;;;;;;;;;20.10;53.90;;;;;;5147977;27;19927;-50
2022/07/11 14:22:07;;;;;;;;;;;20.30;53.60;;;;;;5140821;27;19922;-46
2022/07/11 14:24:33;;;;;;;;;;;20.20;53.90;;;;;;5123159;27;19941;-46